Finley, Washington
Current Conditions -  °F | °C
As of 5:53 AM on Tuesday 27 Jan 2015 (Local Time) from KPSC Reporting Station
Overcast Overcast  
Wind Chill: 33°   Ceiling: 500
Heat Index: 37°   Visibility: 7mi
Dew Point: 37°   Wind: 5mph
Humidity: 100%   Direction: 150°SSE
Pressure: 30.05"   Gusts: NA
Location:  46.2117°N, 119.173°W
Report Text: KPSC 271353Z AUTO 15004KT 7SM OVC005 03/03 A3005 RMK AO2 SLP178 T00280028
Loading
Personal Weather Stations






























Interactive Weather Map New forecast layout! Learn more

10-Day Weather Forecast

Advertisements
Track Severe Weather on mobile